Time;durP1;ratioP1;P1;durP2;ratioP2;P2;SDS_P1;SDS_P2;PMS_P1;PMS_P2;Temp;Humidity;BMP_temperature;BMP_pressure;BME280_temperature;BME280_humidity;BME280_pressure;Samples;Min_cycle;Max_cycle;Signal;HPM_P1;HPM_P2
2023/06/17 00:02:20;;;;;;;26.38;20.00;;;;;;;;;;10061982;28;20043;-70
2023/06/17 00:07:17;;;;;;;30.50;21.45;;;;;;;;;;10035688;29;20130;-70
2023/06/17 00:12:13;;;;;;;24.73;20.70;;;;;;;;;;10049507;29;20047;-70
2023/06/17 00:17:10;;;;;;;25.40;19.75;;;;;;;;;;10065254;28;20043;-70
2023/06/17 00:22:08;;;;;;;25.85;21.60;;;;;;;;;;10067627;28;20059;-69
2023/06/17 00:27:05;;;;;;;24.75;21.40;;;;;;;;;;10061148;28;20050;-70
2023/06/17 00:32:01;;;;;;;28.13;21.58;;;;;;;;;;10066771;28;20059;-70
2023/06/17 00:36:58;;;;;;;27.65;23.63;;;;;;;;;;10056693;28;20465;-70
2023/06/17 00:41:56;;;;;;;33.95;25.88;;;;;;;;;;10041038;29;20074;-70
2023/06/17 00:46:53;;;;;;;30.75;25.17;;;;;;;;;;10057222;28;20643;-70
2023/06/17 00:51:49;;;;;;;32.17;26.10;;;;;;;;;;10066896;29;20118;-70
2023/06/17 00:57:08;;;;;;;36.05;29.08;;;;;;;;;;10061131;28;20039;-70
2023/06/17 01:02:05;;;;;;;34.20;28.65;;;;;;;;;;10063597;28;20039;-70
2023/06/17 01:07:23;;;;;;;29.30;25.88;;;;;;;;;;10060460;29;20047;-70
2023/06/17 01:12:19;;;;;;;39.38;30.02;;;;;;;;;;10057647;29;20520;-69
2023/06/17 01:17:18;;;;;;;31.42;26.40;;;;;;;;;;10060536;28;20725;-70
2023/06/17 01:22:16;;;;;;;33.30;28.30;;;;;;;;;;10050510;29;20048;-73
2023/06/17 01:27:12;;;;;;;32.63;26.55;;;;;;;;;;10056271;28;20115;-73
2023/06/17 01:32:09;;;;;;;35.95;30.63;;;;;;;;;;10048490;28;20102;-73
2023/06/17 01:37:08;;;;;;;35.40;28.98;;;;;;;;;;10054218;29;20051;-73
2023/06/17 01:42:07;;;;;;;34.03;28.00;;;;;;;;;;10054349;28;20063;-73
2023/06/17 01:47:03;;;;;;;35.63;30.20;;;;;;;;;;10057053;28;20118;-73
2023/06/17 01:51:59;;;;;;;33.53;27.80;;;;;;;;;;10062529;28;20050;-74
2023/06/17 01:56:56;;;;;;;35.40;29.45;;;;;;;;;;10063996;28;20048;-73
2023/06/17 02:01:52;;;;;;;32.72;28.42;;;;;;;;;;10066031;29;20173;-74
2023/06/17 02:06:48;;;;;;;37.53;31.33;;;;;;;;;;10067092;29;20078;-73
2023/06/17 02:11:45;;;;;;;39.67;29.58;;;;;;;;;;10070771;29;20047;-73
2023/06/17 02:16:47;;;;;;;36.28;28.25;;;;;;;;;;10053285;28;20457;-73
2023/06/17 02:21:43;;;;;;;33.72;29.92;;;;;;;;;;10076118;28;20062;-73
2023/06/17 02:26:41;;;;;;;30.90;27.23;;;;;;;;;;10068581;28;20043;-73
2023/06/17 02:31:37;;;;;;;42.75;29.80;;;;;;;;;;10074890;28;20173;-73
2023/06/17 02:36:33;;;;;;;36.42;28.90;;;;;;;;;;10048322;29;20470;-73
2023/06/17 02:41:30;;;;;;;36.28;28.65;;;;;;;;;;10059109;29;20047;-73
2023/06/17 02:46:26;;;;;;;36.90;30.50;;;;;;;;;;10070435;28;20513;-73
2023/06/17 02:51:23;;;;;;;35.28;28.98;;;;;;;;;;10057668;29;20074;-73
2023/06/17 02:56:20;;;;;;;38.08;30.30;;;;;;;;;;10067284;28;20513;-73
2023/06/17 03:01:16;;;;;;;39.15;30.58;;;;;;;;;;10046509;28;20051;-73
2023/06/17 03:06:14;;;;;;;36.70;31.85;;;;;;;;;;10060877;28;20063;-73
2023/06/17 03:11:11;;;;;;;35.92;28.95;;;;;;;;;;10060757;29;20059;-73
2023/06/17 03:16:07;;;;;;;32.60;28.45;;;;;;;;;;10060521;29;20043;-73
2023/06/17 03:21:03;;;;;;;33.85;29.02;;;;;;;;;;10047297;28;20047;-74
2023/06/17 03:26:00;;;;;;;34.28;29.40;;;;;;;;;;10057243;29;20083;-73
2023/06/17 03:30:57;;;;;;;30.25;26.60;;;;;;;;;;10049474;29;20454;-73
2023/06/17 03:35:53;;;;;;;33.85;30.13;;;;;;;;;;10059284;28;20052;-73
2023/06/17 03:40:50;;;;;;;36.45;29.08;;;;;;;;;;10058706;29;20051;-73
2023/06/17 03:45:46;;;;;;;41.75;31.33;;;;;;;;;;10064091;28;20054;-74
2023/06/17 03:50:42;;;;;;;41.05;32.05;;;;;;;;;;10060958;28;20117;-74
2023/06/17 03:55:39;;;;;;;33.05;28.58;;;;;;;;;;10060074;28;20057;-73
2023/06/17 04:00:36;;;;;;;34.10;30.55;;;;;;;;;;10063224;29;20097;-73
2023/06/17 04:05:33;;;;;;;35.83;28.27;;;;;;;;;;10051000;28;21130;-74
2023/06/17 04:10:29;;;;;;;37.88;27.50;;;;;;;;;;10064055;29;20051;-73
2023/06/17 04:15:26;;;;;;;35.38;28.02;;;;;;;;;;10035103;28;20050;-73
2023/06/17 04:20:25;;;;;;;34.08;29.02;;;;;;;;;;10054455;29;20080;-74
2023/06/17 04:25:22;;;;;;;33.13;28.00;;;;;;;;;;10058996;28;20063;-73
2023/06/17 04:30:19;;;;;;;32.03;26.80;;;;;;;;;;10050290;29;20054;-74
2023/06/17 04:35:18;;;;;;;31.80;28.52;;;;;;;;;;10049643;28;20073;-73
2023/06/17 04:40:15;;;;;;;37.58;28.63;;;;;;;;;;10039272;29;20047;-73
2023/06/17 04:45:11;;;;;;;29.70;26.55;;;;;;;;;;10040918;28;20119;-74
2023/06/17 04:50:07;;;;;;;31.20;25.63;;;;;;;;;;10065127;28;20547;-73
2023/06/17 04:55:04;;;;;;;35.25;28.42;;;;;;;;;;10061822;28;20122;-72
2023/06/17 05:00:00;;;;;;;34.92;27.85;;;;;;;;;;10058365;28;20043;-72
2023/06/17 05:04:59;;;;;;;35.83;28.23;;;;;;;;;;10063187;28;20512;-73
2023/06/17 05:09:55;;;;;;;34.70;26.98;;;;;;;;;;10049928;29;20769;-74
2023/06/17 05:14:52;;;;;;;29.42;26.33;;;;;;;;;;10044965;29;20063;-72
2023/06/17 05:19:49;;;;;;;31.30;27.10;;;;;;;;;;10046144;28;20126;-72
2023/06/17 05:24:48;;;;;;;36.90;28.67;;;;;;;;;;10051312;28;20051;-72
2023/06/17 05:29:44;;;;;;;37.85;28.02;;;;;;;;;;10055243;29;20059;-72
2023/06/17 05:34:41;;;;;;;32.97;28.02;;;;;;;;;;10053062;29;20549;-75
2023/06/17 05:39:37;;;;;;;39.20;30.23;;;;;;;;;;10071238;28;20046;-74
2023/06/17 05:44:33;;;;;;;37.22;28.90;;;;;;;;;;10063997;29;20109;-74
2023/06/17 05:49:30;;;;;;;35.70;28.90;;;;;;;;;;10046395;28;20050;-75
2023/06/17 05:54:26;;;;;;;42.63;31.98;;;;;;;;;;10064504;28;20048;-74
2023/06/17 05:59:24;;;;;;;41.83;33.33;;;;;;;;;;10058019;28;20055;-74
2023/06/17 06:04:20;;;;;;;37.92;30.10;;;;;;;;;;10060129;29;20077;-74
2023/06/17 06:09:17;;;;;;;40.85;32.45;;;;;;;;;;10054622;28;20043;-74
2023/06/17 06:14:13;;;;;;;40.45;32.08;;;;;;;;;;10061608;29;20716;-74
2023/06/17 06:19:14;;;;;;;37.72;31.45;;;;;;;;;;10054817;28;20046;-74
2023/06/17 06:24:13;;;;;;;38.72;31.25;;;;;;;;;;10056376;28;20075;-74
2023/06/17 06:29:13;;;;;;;36.25;29.80;;;;;;;;;;10048209;28;20054;-74
2023/06/17 06:34:09;;;;;;;41.25;32.60;;;;;;;;;;10046977;29;20480;-74
2023/06/17 06:39:06;;;;;;;37.72;29.65;;;;;;;;;;10048132;28;20044;-75
2023/06/17 06:44:02;;;;;;;33.70;28.38;;;;;;;;;;10061904;28;20581;-75
2023/06/17 06:48:58;;;;;;;42.03;33.30;;;;;;;;;;10056435;29;20044;-75
2023/06/17 06:53:55;;;;;;;38.08;29.70;;;;;;;;;;10070787;29;20043;-75
2023/06/17 06:58:51;;;;;;;35.63;28.50;;;;;;;;;;10059855;29;20501;-75
2023/06/17 07:03:48;;;;;;;33.58;28.67;;;;;;;;;;10064892;29;20067;-75
2023/06/17 07:08:44;;;;;;;36.83;29.02;;;;;;;;;;10070490;28;20074;-75
2023/06/17 07:13:41;;;;;;;41.70;31.30;;;;;;;;;;10044614;28;20051;-75
2023/06/17 07:18:37;;;;;;;39.88;32.47;;;;;;;;;;10053441;28;21574;-74
2023/06/17 07:23:33;;;;;;;38.08;32.20;;;;;;;;;;10059060;28;20565;-75
2023/06/17 07:28:31;;;;;;;40.53;32.03;;;;;;;;;;10056730;28;20116;-75
2023/06/17 07:33:27;;;;;;;40.95;33.33;;;;;;;;;;10065455;28;20078;-74
2023/06/17 07:38:24;;;;;;;39.63;31.33;;;;;;;;;;10057298;28;20048;-74
2023/06/17 07:43:21;;;;;;;41.58;31.30;;;;;;;;;;10055631;28;20459;-74
2023/06/17 07:48:17;;;;;;;33.97;28.40;;;;;;;;;;10061866;28;20076;-74
2023/06/17 07:53:13;;;;;;;34.15;28.17;;;;;;;;;;10050642;28;20043;-74
2023/06/17 07:58:10;;;;;;;30.73;27.35;;;;;;;;;;10052371;29;20047;-72
2023/06/17 08:03:07;;;;;;;31.20;26.33;;;;;;;;;;10064356;28;20051;-74
2023/06/17 08:08:04;;;;;;;33.53;27.85;;;;;;;;;;10054691;28;20044;-74
2023/06/17 08:13:01;;;;;;;30.23;26.33;;;;;;;;;;10054120;28;20501;-74
2023/06/17 08:17:57;;;;;;;34.45;28.27;;;;;;;;;;10049639;29;20102;-74
2023/06/17 08:22:53;;;;;;;28.70;25.35;;;;;;;;;;10058135;29;20055;-74
2023/06/17 08:27:50;;;;;;;31.13;25.40;;;;;;;;;;10049953;28;20058;-74
2023/06/17 08:32:47;;;;;;;35.90;26.10;;;;;;;;;;10035505;29;20046;-74
2023/06/17 08:37:43;;;;;;;31.48;26.52;;;;;;;;;;10058801;28;20047;-75
2023/06/17 08:42:40;;;;;;;29.48;24.83;;;;;;;;;;10044551;28;20075;-75
2023/06/17 08:47:36;;;;;;;31.38;26.85;;;;;;;;;;10057635;28;20051;-75
2023/06/17 08:52:33;;;;;;;27.70;24.33;;;;;;;;;;10053919;28;20051;-75
2023/06/17 08:57:29;;;;;;;27.48;24.25;;;;;;;;;;10045573;29;20054;-75
2023/06/17 09:02:33;;;;;;;26.30;21.77;;;;;;;;;;10065164;28;20047;-75
2023/06/17 09:07:30;;;;;;;26.90;21.55;;;;;;;;;;10055826;28;20043;-75
2023/06/17 09:12:34;;;;;;;27.05;21.30;;;;;;;;;;10065982;29;20062;-75
2023/06/17 09:17:31;;;;;;;24.48;21.05;;;;;;;;;;10049291;28;20510;-75
2023/06/17 09:22:28;;;;;;;22.75;20.40;;;;;;;;;;10067206;29;20051;-72
2023/06/17 09:27:25;;;;;;;26.13;18.58;;;;;;;;;;10064848;28;20075;-72
2023/06/17 09:32:22;;;;;;;20.88;18.63;;;;;;;;;;10057195;29;20402;-73
2023/06/17 09:37:21;;;;;;;22.50;19.05;;;;;;;;;;10068480;28;20077;-75
2023/06/17 09:42:17;;;;;;;23.55;19.98;;;;;;;;;;10060254;28;20102;-73
2023/06/17 09:47:14;;;;;;;20.88;18.40;;;;;;;;;;10064565;28;20501;-73
2023/06/17 09:52:11;;;;;;;23.42;17.77;;;;;;;;;;10068867;28;20055;-72
2023/06/17 09:57:09;;;;;;;19.88;16.92;;;;;;;;;;10050979;28;20129;-73
2023/06/17 10:02:06;;;;;;;18.35;16.30;;;;;;;;;;10057452;28;20074;-73
2023/06/17 10:07:04;;;;;;;18.17;15.85;;;;;;;;;;10069878;28;20117;-73
2023/06/17 10:12:00;;;;;;;20.65;17.30;;;;;;;;;;10055869;28;20502;-73
2023/06/17 10:16:57;;;;;;;18.10;15.00;;;;;;;;;;10066575;29;20059;-73
2023/06/17 10:21:54;;;;;;;17.13;14.43;;;;;;;;;;10059203;29;20078;-73
2023/06/17 10:26:51;;;;;;;14.30;12.90;;;;;;;;;;10061695;29;20498;-74
2023/06/17 10:31:47;;;;;;;15.18;13.20;;;;;;;;;;10052835;29;20067;-73
2023/06/17 10:36:53;;;;;;;14.75;13.35;;;;;;;;;;10046001;28;20060;-74
2023/06/17 10:41:50;;;;;;;16.70;13.52;;;;;;;;;;10060251;28;20082;-74
2023/06/17 10:46:50;;;;;;;14.38;12.25;;;;;;;;;;10060476;28;20055;-74
2023/06/17 10:51:47;;;;;;;13.68;12.30;;;;;;;;;;10063202;28;20043;-74
2023/06/17 10:56:54;;;;;;;14.32;12.90;;;;;;;;;;10054627;28;20675;-74
2023/06/17 11:01:51;;;;;;;14.40;12.98;;;;;;;;;;10058273;29;20098;-74
2023/06/17 11:06:47;;;;;;;14.90;13.45;;;;;;;;;;10054165;29;20474;-74
2023/06/17 11:11:44;;;;;;;14.27;12.60;;;;;;;;;;10069156;28;20098;-74
2023/06/17 11:16:40;;;;;;;16.42;12.65;;;;;;;;;;10058243;28;20056;-74
2023/06/17 11:21:38;;;;;;;18.23;13.68;;;;;;;;;;10068456;28;20540;-75
2023/06/17 11:26:35;;;;;;;13.43;11.20;;;;;;;;;;10045546;29;20051;-75
2023/06/17 11:31:38;;;;;;;12.68;11.50;;;;;;;;;;10055800;29;20044;-75
2023/06/17 11:36:37;;;;;;;14.55;12.38;;;;;;;;;;10067643;28;20047;-74
2023/06/17 11:41:34;;;;;;;13.68;12.30;;;;;;;;;;10060748;29;20425;-75
2023/06/17 11:46:30;;;;;;;15.13;13.63;;;;;;;;;;10062252;28;20051;-74
2023/06/17 11:51:27;;;;;;;13.90;12.48;;;;;;;;;;10050280;29;20047;-75
2023/06/17 11:56:23;;;;;;;13.48;12.27;;;;;;;;;;10062478;28;20058;-75
2023/06/17 12:01:24;;;;;;;13.18;11.85;;;;;;;;;;10050298;28;20048;-75
2023/06/17 12:06:20;;;;;;;13.82;12.27;;;;;;;;;;10059306;28;20090;-74
2023/06/17 12:11:37;;;;;;;13.07;11.75;;;;;;;;;;10064141;28;20047;-75
2023/06/17 12:16:34;;;;;;;12.88;11.68;;;;;;;;;;10044500;28;20059;-75
2023/06/17 12:21:31;;;;;;;13.73;11.85;;;;;;;;;;10061317;28;20521;-75
2023/06/17 12:26:27;;;;;;;12.95;11.48;;;;;;;;;;10058888;28;20070;-75
2023/06/17 12:31:25;;;;;;;15.57;12.27;;;;;;;;;;10065708;29;20102;-74
2023/06/17 12:36:21;;;;;;;13.80;12.63;;;;;;;;;;10062960;28;20533;-75
2023/06/17 12:41:18;;;;;;;13.10;11.82;;;;;;;;;;10060507;28;20510;-75
2023/06/17 12:46:14;;;;;;;12.68;11.43;;;;;;;;;;10056282;28;20051;-74
2023/06/17 12:51:11;;;;;;;11.27;10.30;;;;;;;;;;10060582;28;20050;-74
2023/06/17 12:56:09;;;;;;;11.82;10.63;;;;;;;;;;10046680;28;20051;-74
2023/06/17 13:01:05;;;;;;;10.95;9.85;;;;;;;;;;10051853;28;20502;-75
2023/06/17 13:06:02;;;;;;;11.43;10.32;;;;;;;;;;10046049;29;20607;-75
2023/06/17 13:10:58;;;;;;;10.98;9.88;;;;;;;;;;10052150;29;20102;-74
2023/06/17 13:15:55;;;;;;;12.00;10.80;;;;;;;;;;10055963;29;20051;-74
2023/06/17 13:20:51;;;;;;;12.32;10.73;;;;;;;;;;10042636;29;20387;-74
2023/06/17 13:25:48;;;;;;;13.88;12.50;;;;;;;;;;10063251;28;20043;-75
2023/06/17 13:30:45;;;;;;;18.70;12.18;;;;;;;;;;10056121;29;20142;-76
2023/06/17 13:35:41;;;;;;;12.10;10.98;;;;;;;;;;10052113;29;20501;-75
2023/06/17 13:40:38;;;;;;;15.30;13.18;;;;;;;;;;10050153;29;20406;-75
2023/06/17 13:45:34;;;;;;;12.85;11.60;;;;;;;;;;10058818;28;20722;-75
2023/06/17 13:50:30;;;;;;;12.75;11.55;;;;;;;;;;10068296;28;20461;-75
2023/06/17 13:55:30;;;;;;;11.93;9.93;;;;;;;;;;10068500;28;20605;-75
2023/06/17 14:00:27;;;;;;;11.57;10.48;;;;;;;;;;10037623;28;20062;-75
2023/06/17 14:05:23;;;;;;;11.05;10.00;;;;;;;;;;10040817;29;20048;-75
2023/06/17 14:10:24;;;;;;;11.52;10.43;;;;;;;;;;10064770;29;20074;-75
2023/06/17 14:15:20;;;;;;;12.77;10.50;;;;;;;;;;10058539;28;20051;-75
2023/06/17 14:20:18;;;;;;;12.15;10.95;;;;;;;;;;10062556;29;20100;-75
2023/06/17 14:25:15;;;;;;;11.38;10.23;;;;;;;;;;10063402;29;20051;-75
2023/06/17 14:30:12;;;;;;;9.63;7.90;;;;;;;;;;10066744;28;20493;-75
2023/06/17 14:35:10;;;;;;;11.35;10.15;;;;;;;;;;10063621;28;20055;-75
2023/06/17 14:40:08;;;;;;;11.60;10.40;;;;;;;;;;10068595;28;20047;-75
2023/06/17 14:45:06;;;;;;;12.60;10.77;;;;;;;;;;10063302;28;20083;-75
2023/06/17 14:50:03;;;;;;;11.60;10.38;;;;;;;;;;10063358;28;20114;-74
2023/06/17 14:54:59;;;;;;;11.68;10.50;;;;;;;;;;10062230;28;20051;-76
2023/06/17 14:59:55;;;;;;;10.80;9.80;;;;;;;;;;10066975;28;20686;-75
2023/06/17 15:04:52;;;;;;;11.43;9.95;;;;;;;;;;10069669;28;20142;-76
2023/06/17 15:09:48;;;;;;;10.65;9.63;;;;;;;;;;10053839;28;20107;-75
2023/06/17 15:14:48;;;;;;;10.68;9.68;;;;;;;;;;10057119;28;20139;-75
2023/06/17 15:19:44;;;;;;;11.40;10.20;;;;;;;;;;10055636;28;20124;-75
2023/06/17 15:24:41;;;;;;;10.48;9.38;;;;;;;;;;10061375;28;20556;-75
2023/06/17 15:29:39;;;;;;;11.88;8.90;;;;;;;;;;10050402;28;20054;-75
2023/06/17 15:34:35;;;;;;;10.75;9.65;;;;;;;;;;10065439;28;20043;-75
2023/06/17 15:39:31;;;;;;;9.63;8.77;;;;;;;;;;10054150;28;20426;-75
2023/06/17 15:44:28;;;;;;;10.35;9.35;;;;;;;;;;10065433;28;20039;-75
2023/06/17 15:49:24;;;;;;;9.70;8.57;;;;;;;;;;10066688;28;20111;-74
2023/06/17 15:54:25;;;;;;;9.95;9.13;;;;;;;;;;10059025;29;20055;-75
2023/06/17 15:59:21;;;;;;;9.77;8.87;;;;;;;;;;10053598;28;20138;-74
2023/06/17 16:04:31;;;;;;;10.52;9.35;;;;;;;;;;10061644;28;20465;-74
2023/06/17 16:09:29;;;;;;;10.10;9.23;;;;;;;;;;10053521;28;20102;-74
2023/06/17 16:14:26;;;;;;;11.57;10.38;;;;;;;;;;10054135;29;20102;-74
2023/06/17 16:19:25;;;;;;;12.13;9.75;;;;;;;;;;10053231;29;20548;-74
2023/06/17 16:24:21;;;;;;;12.15;10.95;;;;;;;;;;10067295;28;20050;-75
2023/06/17 16:29:18;;;;;;;11.65;10.52;;;;;;;;;;10062187;28;20042;-74
2023/06/17 16:34:14;;;;;;;12.40;11.07;;;;;;;;;;10060189;29;20522;-74
2023/06/17 16:39:11;;;;;;;13.80;12.10;;;;;;;;;;10062104;28;20039;-74
2023/06/17 16:44:08;;;;;;;15.15;13.32;;;;;;;;;;10058148;28;20043;-74
2023/06/17 16:49:04;;;;;;;17.20;13.93;;;;;;;;;;10059986;28;20053;-75
2023/06/17 16:54:01;;;;;;;10.93;9.68;;;;;;;;;;10053540;28;20055;-75
2023/06/17 16:59:02;;;;;;;11.90;9.93;;;;;;;;;;10058942;28;20146;-74
2023/06/17 17:03:59;;;;;;;14.15;12.65;;;;;;;;;;10062387;28;20060;-74
2023/06/17 17:08:56;;;;;;;12.70;11.15;;;;;;;;;;10053153;29;20059;-75
2023/06/17 17:13:52;;;;;;;12.70;11.18;;;;;;;;;;10056371;29;20051;-75
2023/06/17 17:18:48;;;;;;;21.67;16.50;;;;;;;;;;10055817;28;20417;-75
2023/06/17 17:23:45;;;;;;;21.00;16.60;;;;;;;;;;10046021;29;20043;-75
2023/06/17 17:28:42;;;;;;;18.77;14.77;;;;;;;;;;10068930;29;20534;-74
2023/06/17 17:33:38;;;;;;;27.50;22.58;;;;;;;;;;10045370;29;20106;-75
2023/06/17 17:38:35;;;;;;;14.02;12.63;;;;;;;;;;10075370;28;20086;-76
2023/06/17 17:43:31;;;;;;;14.30;11.50;;;;;;;;;;10063893;28;20083;-75
2023/06/17 17:48:27;;;;;;;12.55;11.25;;;;;;;;;;10040043;28;20608;-75
2023/06/17 17:53:24;;;;;;;20.05;14.40;;;;;;;;;;10062794;28;20051;-75
2023/06/17 17:58:20;;;;;;;14.48;12.98;;;;;;;;;;10058186;29;20078;-76
2023/06/17 18:03:17;;;;;;;13.98;11.57;;;;;;;;;;10073031;28;20051;-75
2023/06/17 18:08:13;;;;;;;14.73;12.07;;;;;;;;;;10048429;28;20477;-75
2023/06/17 18:13:09;;;;;;;11.77;10.45;;;;;;;;;;10038043;29;20421;-75
2023/06/17 18:18:06;;;;;;;12.80;10.43;;;;;;;;;;10067237;29;20050;-75
2023/06/17 18:23:03;;;;;;;11.57;9.50;;;;;;;;;;10060466;28;20055;-75
2023/06/17 18:27:59;;;;;;;10.52;9.43;;;;;;;;;;10057128;28;20695;-74
2023/06/17 18:32:56;;;;;;;10.13;8.63;;;;;;;;;;10060040;28;20651;-74
2023/06/17 18:37:52;;;;;;;10.63;9.32;;;;;;;;;;10057796;29;20091;-74
2023/06/17 18:42:49;;;;;;;11.52;10.05;;;;;;;;;;10070896;28;20047;-74
2023/06/17 18:47:45;;;;;;;9.75;8.55;;;;;;;;;;10061068;28;20051;-74
2023/06/17 18:52:42;;;;;;;9.95;8.95;;;;;;;;;;10063656;29;20086;-74
2023/06/17 18:57:39;;;;;;;9.15;8.23;;;;;;;;;;10068821;28;20050;-74
2023/06/17 19:02:35;;;;;;;9.68;7.88;;;;;;;;;;10056893;28;20513;-74
2023/06/17 19:07:32;;;;;;;8.98;8.18;;;;;;;;;;10064062;28;20055;-74
2023/06/17 19:12:29;;;;;;;8.13;7.43;;;;;;;;;;10064785;29;20051;-74
2023/06/17 19:17:27;;;;;;;8.27;7.57;;;;;;;;;;10065605;29;20079;-74
2023/06/17 19:22:23;;;;;;;8.13;7.43;;;;;;;;;;10061967;29;20106;-74
2023/06/17 19:27:19;;;;;;;8.50;7.70;;;;;;;;;;10065209;29;20043;-76
2023/06/17 19:32:16;;;;;;;9.05;8.15;;;;;;;;;;10072600;28;20213;-76
2023/06/17 19:37:12;;;;;;;8.85;7.82;;;;;;;;;;10055068;29;20043;-75
2023/06/17 19:42:08;;;;;;;9.68;7.80;;;;;;;;;;10053984;29;20070;-76
2023/06/17 19:47:05;;;;;;;11.82;8.23;;;;;;;;;;10061134;28;20047;-75
2023/06/17 19:52:01;;;;;;;8.73;7.85;;;;;;;;;;10059895;28;20051;-75
2023/06/17 19:57:00;;;;;;;12.90;8.93;;;;;;;;;;10056301;28;20047;-75
2023/06/17 20:02:00;;;;;;;8.88;7.45;;;;;;;;;;10062685;29;20109;-75
2023/06/17 20:06:58;;;;;;;9.90;8.60;;;;;;;;;;10053445;29;20102;-75
2023/06/17 20:11:55;;;;;;;11.05;9.90;;;;;;;;;;10052489;29;20094;-75
2023/06/17 20:16:51;;;;;;;10.27;9.20;;;;;;;;;;10054539;28;20054;-75
2023/06/17 20:21:48;;;;;;;9.93;8.93;;;;;;;;;;10054330;28;20087;-75
2023/06/17 20:26:44;;;;;;;10.13;9.10;;;;;;;;;;10054770;29;20051;-75
2023/06/17 20:31:40;;;;;;;9.18;8.27;;;;;;;;;;10065766;28;20054;-75
2023/06/17 20:36:37;;;;;;;9.38;8.48;;;;;;;;;;10060915;28;20071;-75
2023/06/17 20:41:33;;;;;;;9.32;8.30;;;;;;;;;;10052240;28;20052;-75
2023/06/17 20:46:30;;;;;;;11.10;8.40;;;;;;;;;;10060885;28;20561;-75
2023/06/17 20:51:26;;;;;;;10.30;8.07;;;;;;;;;;10055334;28;20048;-75
2023/06/17 20:56:24;;;;;;;9.68;8.63;;;;;;;;;;10063589;28;20110;-75
2023/06/17 21:01:21;;;;;;;8.90;7.85;;;;;;;;;;10067274;28;20055;-75
2023/06/17 21:06:17;;;;;;;11.68;8.52;;;;;;;;;;10069288;28;20071;-75
2023/06/17 21:11:14;;;;;;;10.13;9.13;;;;;;;;;;10046333;28;20494;-75
2023/06/17 21:16:10;;;;;;;10.18;9.18;;;;;;;;;;10070328;29;20047;-75
2023/06/17 21:21:07;;;;;;;9.57;8.55;;;;;;;;;;10068119;29;20058;-75
2023/06/17 21:26:03;;;;;;;9.73;8.23;;;;;;;;;;10071444;28;20138;-75
2023/06/17 21:30:59;;;;;;;9.93;8.93;;;;;;;;;;10062191;28;20082;-75
2023/06/17 21:35:55;;;;;;;11.43;8.27;;;;;;;;;;10068843;28;20470;-75
2023/06/17 21:40:52;;;;;;;9.85;8.85;;;;;;;;;;10070384;28;20126;-75
2023/06/17 21:45:48;;;;;;;8.93;8.02;;;;;;;;;;10081108;28;20051;-75
2023/06/17 21:50:45;;;;;;;9.98;9.07;;;;;;;;;;10056852;28;20048;-75
2023/06/17 21:55:41;;;;;;;12.13;8.85;;;;;;;;;;10069483;28;20784;-75
2023/06/17 22:00:37;;;;;;;10.57;8.80;;;;;;;;;;10073528;28;20513;-75
2023/06/17 22:05:34;;;;;;;9.75;8.25;;;;;;;;;;10056530;28;20070;-75
2023/06/17 22:10:30;;;;;;;13.82;10.82;;;;;;;;;;10067672;29;20421;-75
2023/06/17 22:15:27;;;;;;;12.63;9.68;;;;;;;;;;10047580;28;20529;-74
2023/06/17 22:20:23;;;;;;;11.90;9.98;;;;;;;;;;10058682;29;20067;-74
2023/06/17 22:25:20;;;;;;;12.98;10.80;;;;;;;;;;10058892;28;20493;-76
2023/06/17 22:30:16;;;;;;;11.18;9.32;;;;;;;;;;10058959;29;20052;-76
2023/06/17 22:35:12;;;;;;;13.23;9.32;;;;;;;;;;10071245;28;20043;-76
2023/06/17 22:40:10;;;;;;;11.40;10.00;;;;;;;;;;10068330;28;20047;-74
2023/06/17 22:45:07;;;;;;;10.15;9.20;;;;;;;;;;10072585;28;20047;-73
2023/06/17 22:50:03;;;;;;;11.25;9.98;;;;;;;;;;10057222;29;20783;-73
2023/06/17 22:55:00;;;;;;;11.30;9.68;;;;;;;;;;10070014;29;20047;-74
2023/06/17 22:59:57;;;;;;;11.23;9.23;;;;;;;;;;10066229;28;20094;-74
2023/06/17 23:04:53;;;;;;;10.82;9.13;;;;;;;;;;10060268;28;20039;-74
2023/06/17 23:09:50;;;;;;;12.45;10.23;;;;;;;;;;10054724;29;20119;-74
2023/06/17 23:14:47;;;;;;;11.88;9.52;;;;;;;;;;10043625;28;20057;-74
2023/06/17 23:19:44;;;;;;;12.00;9.23;;;;;;;;;;10055638;28;20111;-74
2023/06/17 23:24:41;;;;;;;10.05;9.00;;;;;;;;;;10062798;29;20051;-74
2023/06/17 23:29:38;;;;;;;11.13;9.73;;;;;;;;;;10041322;29;20087;-74
2023/06/17 23:34:35;;;;;;;10.00;8.93;;;;;;;;;;10058862;29;20130;-74
2023/06/17 23:39:31;;;;;;;10.27;9.15;;;;;;;;;;10061130;28;20043;-74
2023/06/17 23:44:27;;;;;;;12.95;9.65;;;;;;;;;;10069390;29;20059;-74
2023/06/17 23:49:23;;;;;;;10.93;9.82;;;;;;;;;;10064391;29;20047;-74
2023/06/17 23:54:20;;;;;;;11.63;10.43;;;;;;;;;;10059962;29;20074;-74
2023/06/17 23:59:16;;;;;;;12.23;10.52;;;;;;;;;;10035703;29;20047;-74
